createdAt,value
2023-03-10T00:01:39.314Z,10.4
2023-03-10T00:06:41.303Z,10.4
2023-03-10T00:11:43.315Z,10.7
2023-03-10T00:16:48.001Z,10.7
2023-03-10T00:21:50.214Z,10.4
2023-03-10T00:26:52.293Z,10.1
2023-03-10T00:31:54.537Z,9.9
2023-03-10T00:36:56.622Z,9.9
2023-03-10T00:41:59.166Z,9.9
2023-03-10T00:47:01.223Z,9.9
2023-03-10T00:52:03.330Z,9.9
2023-03-10T00:57:05.359Z,9.9
2023-03-10T01:02:07.487Z,9.8
2023-03-10T01:07:09.744Z,9.9
2023-03-10T01:12:11.955Z,9.9
2023-03-10T01:17:14.208Z,9.9
2023-03-10T01:22:16.272Z,10
2023-03-10T01:27:18.297Z,10.2
2023-03-10T01:32:20.343Z,10.2
2023-03-10T01:37:22.337Z,10.1
2023-03-10T01:42:24.358Z,10
2023-03-10T01:47:26.353Z,10
2023-03-10T01:52:28.964Z,10.1
2023-03-10T01:57:32.387Z,10.1
2023-03-10T02:02:36.429Z,10
2023-03-10T02:07:43.014Z,9.9
2023-03-10T02:12:45.293Z,9.9
2023-03-10T02:17:47.813Z,10
2023-03-10T02:22:51.155Z,9.9
2023-03-10T02:27:53.222Z,9.8
2023-03-10T02:32:55.392Z,9.8
2023-03-10T02:37:58.166Z,9.7
2023-03-10T02:43:01.680Z,9.6
2023-03-10T02:48:06.185Z,9.5
2023-03-10T02:53:13.198Z,9.5
2023-03-10T02:58:19.499Z,9.4
2023-03-10T03:03:26.825Z,9.2
2023-03-10T03:08:22.544Z,9.1
2023-03-10T03:13:24.785Z,9.1
2023-03-10T03:18:26.899Z,9
2023-03-10T03:23:32.580Z,8.9
2023-03-10T03:33:38.545Z,8.7
2023-03-10T03:38:43.744Z,8.7
2023-03-10T03:43:45.840Z,8.6
2023-03-10T03:48:48.120Z,8.5
2023-03-10T03:53:50.178Z,8.4
2023-03-10T03:58:52.510Z,8.2
2023-03-10T04:03:59.017Z,8.1
2023-03-10T04:09:01.379Z,8
2023-03-10T04:14:03.561Z,7.9
2023-03-10T04:19:05.577Z,7.8
2023-03-10T04:24:07.683Z,7.7
2023-03-10T04:29:09.748Z,7.6
2023-03-10T04:34:12.105Z,7.5
2023-03-10T04:39:14.433Z,7.3
2023-03-10T04:44:33.136Z,7
2023-03-10T04:49:25.221Z,7
2023-03-10T04:54:27.520Z,6.9
2023-03-10T04:59:29.605Z,6.8
2023-03-10T05:04:31.835Z,6.7
2023-03-10T05:09:34.235Z,6.7
2023-03-10T05:14:36.466Z,6.7
2023-03-10T05:19:38.516Z,6.7
2023-03-10T05:24:40.582Z,6.9
2023-03-10T05:29:42.630Z,6.8
2023-03-10T05:34:44.708Z,6.9
2023-03-10T05:39:46.832Z,7
2023-03-10T05:44:49.043Z,6.9
2023-03-10T05:49:51.388Z,6.9
2023-03-10T05:54:53.397Z,6.9
2023-03-10T05:59:55.450Z,7
2023-03-10T06:04:57.701Z,7.2
2023-03-10T06:10:01.227Z,7.6
2023-03-10T06:15:03.409Z,7.6
2023-03-10T06:20:05.339Z,8.1
2023-03-10T06:25:10.208Z,8.2
2023-03-10T06:30:12.126Z,8.4
2023-03-10T06:35:14.130Z,8.8
2023-03-10T06:40:16.754Z,8.8
2023-03-10T06:45:18.795Z,8.7
2023-03-10T06:50:20.830Z,8.7
2023-03-10T06:55:24.393Z,9
2023-03-10T07:00:26.729Z,8.9
2023-03-10T07:05:28.741Z,9.6
2023-03-10T07:10:30.998Z,10.4
2023-03-10T07:15:33.008Z,11.6
2023-03-10T07:20:35.049Z,12.1
2023-03-10T07:25:37.168Z,12.7
2023-03-10T07:30:39.317Z,13.4
2023-03-10T07:35:42.534Z,14.6
2023-03-10T07:40:44.770Z,15.2
2023-03-10T07:45:47.149Z,17.3
2023-03-10T07:50:49.295Z,18.3
2023-03-10T07:55:51.505Z,18.4
2023-03-10T08:00:53.545Z,19.9
2023-03-10T08:05:55.623Z,20.4
2023-03-10T08:10:57.843Z,22
2023-03-10T08:16:01.489Z,22.2
2023-03-10T08:21:03.808Z,22.2
2023-03-10T08:26:05.910Z,21
2023-03-10T08:31:08.029Z,20.4
2023-03-10T08:36:11.007Z,17.9
2023-03-10T08:51:17.926Z,15.2
2023-03-10T08:56:20.027Z,15.2
2023-03-10T09:01:24.669Z,14.4
2023-03-10T09:06:27.883Z,14.3
2023-03-10T09:11:29.966Z,13.9
2023-03-10T09:16:32.501Z,12.7
2023-03-10T09:21:36.558Z,12.6
2023-03-10T09:26:38.670Z,12.6
2023-03-10T09:31:40.859Z,12.9
2023-03-10T09:36:43.471Z,12.9
2023-03-10T09:41:45.502Z,13.2
2023-03-10T09:46:47.540Z,13.1
2023-03-10T09:51:49.736Z,13.3
2023-03-10T09:56:53.212Z,13.4
2023-03-10T10:01:56.993Z,13.8
2023-03-10T10:06:59.068Z,13.9
2023-03-10T10:12:01.432Z,14
2023-03-10T10:17:03.895Z,13.5
2023-03-10T10:22:09.033Z,13.8
2023-03-10T10:27:11.601Z,13.8
2023-03-10T10:32:14.355Z,17.9
2023-03-10T10:37:17.992Z,17.4
2023-03-10T10:42:20.012Z,17.4
2023-03-10T10:47:22.278Z,19.6
2023-03-10T10:52:24.356Z,18.1
2023-03-10T10:57:26.462Z,17.1
2023-03-10T11:02:28.707Z,17.4
2023-03-10T11:07:31.535Z,16.6
2023-03-10T11:12:33.637Z,16.5
2023-03-10T11:17:35.765Z,16.3
2023-03-10T11:22:37.810Z,15.7
2023-03-10T11:27:39.804Z,15.3
2023-03-10T11:32:41.975Z,15.2
2023-03-10T11:37:44.085Z,15.1
2023-03-10T11:42:46.131Z,14.6
2023-03-10T11:47:48.351Z,14.7
2023-03-10T11:52:52.723Z,16.3
2023-03-10T11:57:54.760Z,16.3
2023-03-10T12:02:56.856Z,17.3
2023-03-10T12:07:59.126Z,19.3
2023-03-10T12:13:01.437Z,20.9
2023-03-10T12:18:03.560Z,21.5
2023-03-10T12:23:05.982Z,20.5
2023-03-10T12:28:08.700Z,20.9
2023-03-10T12:33:10.890Z,20.9
2023-03-10T12:38:12.885Z,20.9
2023-03-10T12:43:14.959Z,20.5
2023-03-10T12:48:16.932Z,20.3
2023-03-10T12:53:19.333Z,18.4
2023-03-10T12:58:21.336Z,18.3
2023-03-10T13:03:23.434Z,17.9
2023-03-10T13:08:25.632Z,17.7
2023-03-10T13:13:28.262Z,17.8
2023-03-10T13:18:30.337Z,17.2
2023-03-10T13:23:32.581Z,17.2
2023-03-10T13:28:34.708Z,17.2
2023-03-10T13:33:54.630Z,17.3
2023-03-10T13:38:48.148Z,17.7
2023-03-10T13:43:50.270Z,17.7
2023-03-10T13:48:52.204Z,17.8
2023-03-10T13:53:54.330Z,16.9
2023-03-10T13:58:56.905Z,16.3
2023-03-10T14:03:59.126Z,16.3
2023-03-10T14:09:01.355Z,16.4
2023-03-10T14:14:03.557Z,16.7
2023-03-10T14:19:05.617Z,16.5
2023-03-10T14:24:07.632Z,16.3
2023-03-10T14:29:09.690Z,16.2
2023-03-10T14:34:11.966Z,16
2023-03-10T14:39:14.362Z,15.5
2023-03-10T14:44:16.450Z,15.5
2023-03-10T14:49:19.296Z,15.6
2023-03-10T14:54:21.684Z,15.6
2023-03-10T14:59:24.047Z,15.6
2023-03-10T15:04:26.111Z,15.6
2023-03-10T15:09:28.173Z,15.5
2023-03-10T15:14:30.485Z,15.5
2023-03-10T15:19:32.568Z,15.5
2023-03-10T15:24:34.857Z,15.4
2023-03-10T15:29:37.131Z,15.3
2023-03-10T15:34:39.329Z,15.2
2023-03-10T15:39:41.456Z,15
2023-03-10T15:44:43.578Z,14.7
2023-03-10T15:49:45.626Z,14.6
2023-03-10T15:54:47.667Z,14.6
2023-03-10T15:59:50.133Z,14.5
2023-03-10T16:04:53.067Z,14.4
2023-03-10T16:09:55.404Z,14.4
2023-03-10T16:14:57.558Z,14.4
2023-03-10T16:19:59.783Z,14.3
2023-03-10T16:25:02.839Z,14.3
2023-03-10T16:30:05.900Z,14.1
2023-03-10T16:35:08.207Z,14.1
2023-03-10T16:40:10.700Z,14
2023-03-10T16:45:12.738Z,13.9
2023-03-10T16:50:14.848Z,13.9
2023-03-10T16:55:16.983Z,13.8
2023-03-10T17:00:19.818Z,13.7
2023-03-10T17:05:22.868Z,13.6
2023-03-10T17:10:25.018Z,13.6
2023-03-10T17:15:27.082Z,13.5
2023-03-10T17:20:29.320Z,13.5
2023-03-10T17:30:35.057Z,13.3
2023-03-10T17:35:37.374Z,13.2
2023-03-10T17:40:39.620Z,13.2
2023-03-10T17:45:42.230Z,13.1
2023-03-10T17:50:44.400Z,13
2023-03-10T17:55:46.470Z,13
2023-03-10T18:00:48.567Z,13
2023-03-10T18:05:51.058Z,12.9
2023-03-10T18:10:53.079Z,12.9
2023-03-10T18:15:55.529Z,12.9
2023-03-10T18:20:57.633Z,12.9
2023-03-10T18:25:59.767Z,12.9
2023-03-10T18:31:06.229Z,12.8
2023-03-10T18:36:09.411Z,12.8
2023-03-10T18:41:11.637Z,12.8
2023-03-10T18:46:13.775Z,12.7
2023-03-10T18:51:15.963Z,12.7
2023-03-10T18:56:18.085Z,12.6
2023-03-10T19:01:23.250Z,12.6
2023-03-10T19:06:25.382Z,12.6
2023-03-10T19:11:28.075Z,12.5
2023-03-10T19:16:30.739Z,12.5
2023-03-10T19:21:32.972Z,12.5
2023-03-10T19:26:35.243Z,12.5
2023-03-10T19:31:37.696Z,12.4
2023-03-10T19:36:39.796Z,12.4
2023-03-10T19:41:42.036Z,12.4
2023-03-10T19:46:45.692Z,12.3
2023-03-10T19:51:47.854Z,12.3
2023-03-10T19:56:49.957Z,12.3
2023-03-10T20:01:52.110Z,12.3
2023-03-10T20:06:54.233Z,12.2
2023-03-10T20:11:57.436Z,12.2
2023-03-10T20:17:00.024Z,12.2
2023-03-10T20:22:02.507Z,12.2
2023-03-10T20:27:05.061Z,12.1
2023-03-10T20:32:13.629Z,12.1
2023-03-10T20:37:16.200Z,12
2023-03-10T20:42:18.155Z,12
2023-03-10T20:47:20.191Z,11.9
2023-03-10T20:52:22.310Z,11.9
2023-03-10T20:57:24.478Z,11.9
2023-03-10T21:02:26.574Z,11.9
2023-03-10T21:07:28.760Z,11.9
2023-03-10T21:12:30.818Z,11.8
2023-03-10T21:17:33.162Z,11.7
2023-03-10T21:22:35.257Z,11.7
2023-03-10T21:27:37.294Z,11.7
2023-03-10T21:32:39.517Z,11.6
2023-03-10T21:37:44.119Z,11.5
2023-03-10T21:42:46.419Z,11.5
2023-03-10T21:47:48.959Z,11.5
2023-03-10T21:52:51.420Z,11.5
2023-03-10T21:57:53.667Z,11.4
2023-03-10T22:02:55.726Z,11.5
2023-03-10T22:07:58.106Z,11.5
2023-03-10T22:13:00.224Z,11.4
2023-03-10T22:18:02.319Z,11.5
2023-03-10T22:23:04.269Z,11.4
2023-03-10T22:28:06.265Z,11.3
2023-03-10T22:33:08.471Z,11.1
2023-03-10T22:38:10.543Z,11.1
2023-03-10T22:43:12.586Z,11.1
2023-03-10T22:48:14.857Z,11
2023-03-10T22:53:17.154Z,10.8
2023-03-10T22:58:19.257Z,10.9
2023-03-10T23:03:21.853Z,10.7
2023-03-10T23:08:24.187Z,10.7
2023-03-10T23:13:28.566Z,10.4
2023-03-10T23:18:30.781Z,10.3
2023-03-10T23:23:33.014Z,10.3
2023-03-10T23:28:35.043Z,10.3
2023-03-10T23:33:37.134Z,10.3
2023-03-10T23:38:39.260Z,10.2
2023-03-10T23:43:41.320Z,10.2
2023-03-10T23:48:43.481Z,10.1
2023-03-10T23:53:45.799Z,10.2
2023-03-10T23:58:47.891Z,10.1
